createdAt,value
2019-04-30T00:02:13.368Z,33.07
2019-04-30T00:04:45.282Z,34.50
2019-04-30T00:07:15.497Z,33.13
2019-04-30T00:09:44.938Z,34.97
2019-04-30T00:12:15.553Z,34.20
2019-04-30T00:14:44.883Z,35.50
2019-04-30T00:17:16.015Z,35.70
2019-04-30T00:19:43.602Z,35.57
2019-04-30T00:22:12.074Z,37.13
2019-04-30T00:24:46.820Z,36.27
2019-04-30T00:27:10.762Z,38.53
2019-04-30T00:29:39.260Z,33.97
2019-04-30T00:32:08.052Z,36.90
2019-04-30T00:34:39.386Z,37.83
2019-04-30T00:37:13.665Z,37.67
2019-04-30T00:39:37.402Z,37.43
2019-04-30T00:42:05.920Z,36.63
2019-04-30T00:44:35.672Z,36.43
2019-04-30T00:47:08.039Z,35.70
2019-04-30T00:49:35.119Z,38.17
2019-04-30T00:52:05.172Z,38.00
2019-04-30T00:54:35.181Z,35.80
2019-04-30T00:57:07.388Z,34.93
2019-04-30T00:59:35.053Z,35.00
2019-04-30T01:02:20.053Z,35.20
2019-04-30T01:04:50.612Z,36.97
2019-04-30T01:07:19.165Z,35.23
2019-04-30T01:09:49.860Z,37.47
2019-04-30T01:12:27.503Z,37.40
2019-04-30T01:14:49.673Z,36.17
2019-04-30T01:17:18.883Z,37.33
2019-04-30T01:19:51.067Z,35.90
2019-04-30T01:22:21.255Z,35.70
2019-04-30T01:24:49.626Z,35.23
2019-04-30T01:27:18.846Z,35.40
2019-04-30T01:30:08.689Z,35.73
2019-04-30T01:32:39.427Z,36.10
2019-04-30T01:35:08.912Z,37.27
2019-04-30T01:37:38.670Z,36.77
2019-04-30T01:40:13.616Z,37.87
2019-04-30T01:42:41.150Z,38.37
2019-04-30T01:45:08.879Z,36.80
2019-04-30T01:47:37.277Z,38.80
2019-04-30T01:50:05.942Z,37.90
2019-04-30T01:52:52.720Z,39.00
2019-04-30T01:55:24.182Z,39.53
2019-04-30T01:58:03.210Z,40.37
2019-04-30T02:00:34.593Z,38.03
2019-04-30T02:03:03.078Z,37.73
2019-04-30T02:05:31.647Z,38.20
2019-04-30T02:08:00.137Z,38.57
2019-04-30T02:10:28.657Z,38.77
2019-04-30T02:12:58.950Z,39.17
2019-04-30T02:15:29.035Z,39.93
2019-04-30T02:17:58.757Z,40.10
2019-04-30T02:20:28.682Z,38.10
2019-04-30T02:22:58.646Z,39.27
2019-04-30T02:25:29.378Z,40.57
2019-04-30T02:27:59.042Z,37.03
2019-04-30T02:30:30.479Z,38.80
2019-04-30T02:33:00.496Z,39.33
2019-04-30T02:35:49.954Z,36.70
2019-04-30T02:38:24.921Z,38.97
2019-04-30T02:40:53.530Z,38.97
2019-04-30T02:43:22.999Z,37.43
2019-04-30T02:45:52.863Z,38.03
2019-04-30T02:48:22.870Z,39.20
2019-04-30T02:50:51.759Z,37.83
2019-04-30T02:53:40.216Z,36.53
2019-04-30T02:56:09.886Z,35.73
2019-04-30T02:58:40.988Z,35.67
2019-04-30T03:01:10.296Z,35.73
2019-04-30T03:03:39.705Z,35.03
2019-04-30T03:06:11.424Z,34.40
2019-04-30T03:08:40.407Z,35.27
2019-04-30T03:11:09.782Z,35.20
2019-04-30T03:13:42.514Z,35.20
2019-04-30T03:16:09.526Z,33.70
2019-04-30T03:18:59.405Z,35.00
2019-04-30T03:21:41.569Z,34.77
2019-04-30T03:24:10.929Z,34.97
2019-04-30T03:26:40.167Z,33.73
2019-04-30T03:29:11.256Z,34.53
2019-04-30T03:31:44.147Z,35.13
2019-04-30T03:34:16.599Z,34.77
2019-04-30T03:36:40.602Z,35.20
2019-04-30T03:39:10.763Z,35.43
2019-04-30T03:41:41.265Z,36.43
2019-04-30T03:44:18.512Z,35.80
2019-04-30T03:46:40.669Z,34.93
2019-04-30T03:49:12.511Z,35.13
2019-04-30T03:51:40.262Z,36.07
2019-04-30T03:54:10.199Z,34.37
2019-04-30T03:56:39.888Z,34.73
2019-04-30T03:59:10.643Z,34.77
2019-04-30T04:01:45.251Z,35.27
2019-04-30T04:04:26.082Z,34.83
2019-04-30T04:07:02.737Z,34.97
2019-04-30T04:09:36.534Z,36.13
2019-04-30T04:12:23.621Z,36.00
2019-04-30T04:14:51.336Z,33.30
2019-04-30T04:17:20.405Z,32.80
2019-04-30T04:19:50.279Z,32.97
2019-04-30T04:22:20.595Z,32.10
2019-04-30T04:24:52.899Z,33.50
2019-04-30T04:27:21.476Z,33.60
2019-04-30T04:29:51.359Z,32.30
2019-04-30T04:32:20.628Z,33.10
2019-04-30T04:34:50.816Z,33.83
2019-04-30T04:37:20.295Z,31.73
2019-04-30T04:39:50.020Z,33.50
2019-04-30T04:42:19.518Z,34.07
2019-04-30T04:44:50.117Z,32.90
2019-04-30T04:47:19.859Z,30.90
2019-04-30T04:49:53.237Z,31.80
2019-04-30T04:52:21.658Z,31.67
2019-04-30T04:54:51.104Z,32.70
2019-04-30T04:57:22.500Z,31.67
2019-04-30T04:59:50.323Z,32.10
2019-04-30T05:02:34.361Z,34.00
2019-04-30T05:05:04.208Z,33.57
2019-04-30T05:07:32.686Z,29.27
2019-04-30T05:10:02.747Z,30.90
2019-04-30T05:12:31.330Z,31.43
2019-04-30T05:14:59.941Z,31.10
2019-04-30T05:17:29.704Z,31.40
2019-04-30T05:19:58.851Z,33.23
2019-04-30T05:22:29.144Z,31.27
2019-04-30T05:24:58.911Z,33.20
2019-04-30T05:27:27.730Z,34.07
2019-04-30T05:29:59.495Z,32.37
2019-04-30T05:32:29.323Z,32.60
2019-04-30T05:35:03.968Z,32.60
2019-04-30T05:37:32.387Z,33.03
2019-04-30T05:40:01.987Z,33.50
2019-04-30T05:42:49.640Z,34.20
2019-04-30T05:45:19.233Z,32.93
2019-04-30T05:47:50.258Z,31.10
2019-04-30T05:50:19.983Z,33.60
2019-04-30T05:52:49.296Z,32.03
2019-04-30T05:55:19.813Z,33.27
2019-04-30T05:57:55.776Z,30.97
2019-04-30T06:00:19.152Z,31.93
2019-04-30T06:02:49.767Z,30.00
2019-04-30T06:05:21.584Z,30.13
2019-04-30T06:07:52.043Z,29.60
2019-04-30T06:10:42.595Z,28.63
2019-04-30T06:13:15.563Z,28.80
2019-04-30T06:15:51.140Z,29.00
2019-04-30T06:18:20.427Z,29.77
2019-04-30T06:20:49.084Z,30.23
2019-04-30T06:23:19.393Z,30.17
2019-04-30T06:25:57.441Z,27.70
2019-04-30T06:28:19.779Z,27.20
2019-04-30T06:30:49.236Z,27.70
2019-04-30T06:33:19.310Z,28.70
2019-04-30T06:35:49.247Z,28.57
2019-04-30T06:38:18.465Z,27.53
2019-04-30T06:40:48.815Z,28.17
2019-04-30T06:48:56.619Z,24.90
2019-04-30T06:51:25.075Z,25.10
2019-04-30T06:53:53.446Z,23.90
2019-04-30T06:56:21.910Z,27.67
2019-04-30T06:58:52.578Z,25.37
2019-04-30T07:01:20.494Z,25.37
2019-04-30T07:03:49.003Z,26.60
2019-04-30T07:06:27.500Z,24.37
2019-04-30T07:09:08.789Z,24.10
2019-04-30T07:11:40.317Z,24.30
2019-04-30T07:14:09.689Z,25.57
2019-04-30T07:16:39.730Z,24.40
2019-04-30T07:19:09.300Z,23.73
2019-04-30T07:21:42.860Z,24.80
2019-04-30T07:24:09.388Z,24.00
2019-04-30T07:26:38.947Z,24.17
2019-04-30T07:29:09.469Z,24.30
2019-04-30T07:31:39.267Z,22.53
2019-04-30T07:34:09.309Z,22.73
2019-04-30T07:36:46.889Z,25.07
2019-04-30T07:39:09.993Z,23.03
2019-04-30T07:41:40.090Z,23.83
2019-04-30T07:44:10.774Z,25.37
2019-04-30T07:46:41.192Z,25.73
2019-04-30T07:49:10.042Z,24.23
2019-04-30T07:51:41.264Z,23.83
2019-04-30T07:54:09.301Z,24.27
2019-04-30T07:56:41.224Z,24.87
2019-04-30T07:59:10.863Z,25.67
2019-04-30T08:01:59.995Z,23.53
2019-04-30T08:04:36.590Z,24.33
2019-04-30T08:07:05.945Z,25.93
2019-04-30T08:09:39.700Z,25.67
2019-04-30T08:12:04.652Z,24.40
2019-04-30T08:14:33.191Z,23.70
2019-04-30T08:17:01.870Z,26.97
2019-04-30T08:19:30.327Z,24.10
2019-04-30T08:21:58.712Z,24.63
2019-04-30T08:24:29.075Z,26.13
2019-04-30T08:26:59.096Z,25.63
2019-04-30T08:29:29.366Z,27.13
2019-04-30T08:31:59.370Z,25.47
2019-04-30T08:34:29.235Z,24.30
2019-04-30T08:36:59.426Z,24.40
2019-04-30T08:39:29.529Z,22.83
2019-04-30T08:42:00.002Z,25.47
2019-04-30T08:44:29.481Z,25.60
2019-04-30T08:46:59.062Z,24.43
2019-04-30T08:49:29.784Z,23.30
2019-04-30T08:51:58.691Z,26.27
2019-04-30T08:54:27.242Z,25.50
2019-04-30T08:56:55.649Z,22.87
2019-04-30T08:59:24.086Z,22.57
2019-04-30T09:01:52.511Z,23.47
2019-04-30T09:04:21.015Z,24.43
2019-04-30T09:06:49.761Z,22.57
2019-04-30T09:09:22.734Z,24.20
2019-04-30T09:11:55.471Z,22.80
2019-04-30T09:14:21.452Z,23.80
2019-04-30T09:16:51.390Z,23.23
2019-04-30T09:19:21.300Z,23.57
2019-04-30T09:21:50.603Z,23.40
2019-04-30T09:24:19.222Z,24.50
2019-04-30T09:26:49.279Z,25.63
2019-04-30T09:29:19.127Z,24.57
2019-04-30T09:31:49.288Z,23.43
2019-04-30T09:34:20.738Z,24.27
2019-04-30T09:36:49.050Z,25.20
2019-04-30T09:39:19.505Z,24.07
2019-04-30T09:41:49.472Z,26.77
2019-04-30T09:44:19.451Z,25.67
2019-04-30T09:46:48.934Z,22.77
2019-04-30T09:49:19.340Z,23.63
2019-04-30T09:51:49.609Z,21.87
2019-04-30T09:54:20.001Z,23.43
2019-04-30T09:56:49.612Z,22.23
2019-04-30T09:59:19.005Z,25.47
2019-04-30T10:01:47.655Z,26.13
2019-04-30T10:04:16.367Z,22.43
2019-04-30T10:06:45.254Z,22.17
2019-04-30T10:09:15.744Z,23.30
2019-04-30T10:11:57.065Z,24.63
2019-04-30T10:14:25.427Z,24.00
2019-04-30T10:17:11.426Z,23.80
2019-04-30T10:19:39.870Z,20.17
2019-04-30T10:22:08.983Z,24.40
2019-04-30T10:24:39.202Z,22.47
2019-04-30T10:27:12.955Z,23.57
2019-04-30T10:29:39.533Z,23.53
2019-04-30T10:32:08.800Z,23.03
2019-04-30T10:34:37.480Z,21.90
2019-04-30T10:37:06.036Z,22.20
2019-04-30T10:39:34.635Z,22.07
2019-04-30T10:42:03.110Z,22.97
2019-04-30T10:44:31.606Z,21.43
2019-04-30T10:47:00.057Z,20.20
2019-04-30T10:49:29.184Z,22.37
2019-04-30T10:52:00.817Z,21.80
2019-04-30T10:54:28.992Z,22.07
2019-04-30T10:56:59.189Z,22.13
2019-04-30T10:59:27.786Z,21.47
2019-04-30T11:01:56.254Z,21.70
2019-04-30T11:04:25.594Z,20.07
2019-04-30T11:06:54.038Z,17.47
2019-04-30T11:09:22.786Z,20.50
2019-04-30T11:11:51.233Z,19.20
2019-04-30T11:14:19.711Z,20.37
2019-04-30T11:16:51.241Z,18.80
2019-04-30T11:19:19.234Z,19.53
2019-04-30T11:21:48.206Z,21.67
2019-04-30T11:24:17.014Z,20.63
2019-04-30T11:26:49.521Z,22.13
2019-04-30T11:29:17.347Z,20.60
2019-04-30T11:32:00.570Z,20.23
2019-04-30T11:34:29.248Z,19.10
2019-04-30T11:36:57.644Z,17.90
2019-04-30T11:39:26.753Z,17.80
2019-04-30T11:41:55.231Z,17.23
2019-04-30T11:44:30.888Z,17.03
2019-04-30T11:47:19.444Z,16.73
2019-04-30T11:49:48.557Z,16.17
2019-04-30T11:52:17.066Z,17.00
2019-04-30T11:54:51.662Z,18.20
2019-04-30T11:57:15.674Z,15.27
2019-04-30T11:59:44.118Z,18.47
2019-04-30T12:02:33.501Z,15.17
2019-04-30T12:05:01.979Z,15.00
2019-04-30T12:07:40.539Z,13.90
2019-04-30T12:10:39.113Z,15.13
2019-04-30T12:13:23.440Z,14.87
2019-04-30T12:15:52.023Z,14.77
2019-04-30T12:18:20.523Z,14.13
2019-04-30T12:20:48.970Z,14.70
2019-04-30T12:23:18.939Z,15.27
2019-04-30T12:25:49.291Z,15.70
2019-04-30T12:28:19.559Z,14.93
2019-04-30T12:30:48.946Z,13.93
2019-04-30T12:33:19.131Z,13.30
2019-04-30T12:35:51.054Z,12.37
2019-04-30T12:38:19.214Z,12.03
2019-04-30T12:40:48.082Z,12.47
2019-04-30T12:43:16.537Z,11.30
2019-04-30T12:45:45.055Z,11.60
2019-04-30T12:48:20.330Z,13.27
2019-04-30T12:51:19.858Z,13.40
2019-04-30T12:53:54.822Z,12.53
2019-04-30T12:56:37.194Z,13.80
2019-04-30T12:59:05.679Z,13.33
2019-04-30T13:01:34.336Z,13.90
2019-04-30T13:04:02.970Z,13.97
2019-04-30T13:06:31.905Z,13.70
2019-04-30T13:09:01.197Z,11.97
2019-04-30T13:11:32.316Z,13.83
2019-04-30T13:14:01.753Z,12.53
2019-04-30T13:16:30.493Z,13.87
2019-04-30T13:18:59.408Z,13.50
2019-04-30T13:21:28.485Z,12.03
2019-04-30T13:23:57.012Z,12.47
2019-04-30T13:26:25.526Z,13.23
2019-04-30T13:29:01.311Z,12.87
2019-04-30T13:31:29.774Z,14.57
2019-04-30T13:34:08.938Z,13.77
2019-04-30T13:36:40.721Z,13.83
2019-04-30T13:39:19.434Z,13.40
2019-04-30T13:41:53.314Z,13.17
2019-04-30T13:44:31.009Z,12.23
2019-04-30T13:46:59.456Z,13.67
2019-04-30T13:49:30.031Z,13.97
2019-04-30T13:51:57.997Z,13.30
2019-04-30T13:54:27.532Z,13.73
2019-04-30T13:56:56.151Z,15.07
2019-04-30T13:59:24.519Z,13.57
2019-04-30T14:01:53.415Z,14.37
2019-04-30T14:04:29.115Z,13.10
2019-04-30T14:07:15.521Z,14.40
2019-04-30T14:09:44.094Z,13.50
2019-04-30T14:12:12.527Z,14.23
2019-04-30T14:14:40.987Z,15.53
2019-04-30T14:17:09.727Z,15.33
2019-04-30T14:19:41.989Z,16.33
2019-04-30T14:22:10.579Z,14.93
2019-04-30T14:24:39.302Z,15.87
2019-04-30T14:27:09.005Z,17.87
2019-04-30T14:29:39.440Z,15.17
2019-04-30T14:32:08.684Z,15.07
2019-04-30T14:34:39.353Z,14.83
2019-04-30T14:37:07.508Z,15.87
2019-04-30T14:39:36.249Z,16.77
2019-04-30T14:42:05.202Z,15.97
2019-04-30T14:44:35.359Z,15.90
2019-04-30T14:47:12.358Z,14.40
2019-04-30T14:50:05.034Z,15.10
2019-04-30T14:52:36.290Z,14.93
2019-04-30T14:55:23.966Z,14.87
2019-04-30T14:58:10.544Z,14.00
2019-04-30T15:00:59.416Z,15.87
2019-04-30T15:03:29.484Z,14.73
2019-04-30T15:05:58.940Z,14.33
2019-04-30T15:08:29.327Z,14.33
2019-04-30T15:10:58.079Z,14.93
2019-04-30T15:13:26.786Z,14.40
2019-04-30T15:15:55.399Z,14.43
2019-04-30T15:18:23.762Z,15.13
2019-04-30T15:21:06.289Z,14.30
2019-04-30T15:23:58.576Z,13.73
2019-04-30T15:26:24.553Z,15.00
2019-04-30T15:28:50.262Z,15.87
2019-04-30T15:31:18.784Z,15.43
2019-04-30T15:34:02.608Z,16.80
2019-04-30T15:36:25.094Z,14.80
2019-04-30T15:39:08.271Z,14.27
2019-04-30T15:41:36.702Z,16.00
2019-04-30T15:44:05.643Z,14.20
2019-04-30T15:46:34.123Z,16.00
2019-04-30T15:49:02.579Z,16.33
2019-04-30T15:51:31.020Z,16.27
2019-04-30T15:53:59.496Z,16.73
2019-04-30T15:56:36.118Z,15.60
2019-04-30T15:59:16.105Z,16.07
2019-04-30T16:01:47.726Z,17.00
2019-04-30T16:04:18.547Z,16.57
2019-04-30T16:06:49.051Z,15.37
2019-04-30T16:09:23.028Z,16.97
2019-04-30T16:12:09.431Z,18.20
2019-04-30T16:14:38.682Z,17.43
2019-04-30T16:17:32.320Z,16.77
2019-04-30T16:20:00.701Z,18.40
2019-04-30T16:22:29.236Z,19.90
2019-04-30T16:25:00.478Z,19.80
2019-04-30T16:27:27.782Z,20.87
2019-04-30T16:29:56.206Z,20.23
2019-04-30T16:32:24.711Z,22.60
2019-04-30T16:34:53.087Z,20.73
2019-04-30T16:37:21.487Z,20.03
2019-04-30T16:39:49.866Z,21.50
2019-04-30T16:42:19.009Z,19.60
2019-04-30T16:44:47.738Z,21.70
2019-04-30T16:47:16.897Z,20.63
2019-04-30T16:49:45.753Z,21.00
2019-04-30T16:52:14.272Z,20.77
2019-04-30T16:54:42.640Z,21.83
2019-04-30T16:57:11.070Z,21.20
2019-04-30T16:59:41.520Z,21.20
2019-04-30T17:02:10.438Z,22.00
2019-04-30T17:04:56.314Z,21.83
2019-04-30T17:07:50.641Z,21.37
2019-04-30T17:10:41.062Z,20.10
2019-04-30T17:13:40.746Z,21.20
2019-04-30T17:16:11.455Z,20.63
2019-04-30T17:18:41.841Z,21.60
2019-04-30T17:21:09.971Z,20.47
2019-04-30T17:23:38.531Z,20.57
2019-04-30T17:26:07.092Z,20.10
2019-04-30T17:28:35.714Z,20.63
2019-04-30T17:31:04.192Z,20.50
2019-04-30T17:33:32.559Z,21.63
2019-04-30T17:36:00.926Z,20.27
2019-04-30T17:38:30.015Z,20.63
2019-04-30T17:40:58.402Z,20.53
2019-04-30T17:43:26.855Z,21.20
2019-04-30T17:45:55.718Z,20.50
2019-04-30T17:48:24.906Z,21.47
2019-04-30T17:50:53.547Z,20.87
2019-04-30T17:53:22.074Z,19.17
2019-04-30T17:55:50.512Z,20.87
2019-04-30T17:58:20.649Z,20.00
2019-04-30T18:00:52.824Z,19.93
2019-04-30T18:03:21.283Z,20.33
2019-04-30T18:05:49.720Z,19.53
2019-04-30T18:08:18.258Z,20.03
2019-04-30T18:10:46.635Z,19.80
2019-04-30T18:13:15.087Z,19.97
2019-04-30T18:15:43.572Z,19.17
2019-04-30T18:18:22.859Z,19.83
2019-04-30T18:20:57.031Z,19.87
2019-04-30T18:23:37.959Z,19.10
2019-04-30T18:26:10.406Z,18.43
2019-04-30T18:28:38.845Z,18.70
2019-04-30T18:31:08.852Z,18.33
2019-04-30T18:33:37.484Z,17.97
2019-04-30T18:36:05.987Z,17.87
2019-04-30T18:38:34.479Z,18.00
2019-04-30T18:41:02.988Z,16.80
2019-04-30T18:43:31.423Z,18.07
2019-04-30T18:46:00.717Z,18.13
2019-04-30T18:48:29.481Z,18.40
2019-04-30T18:50:58.025Z,18.03
2019-04-30T18:53:28.586Z,18.60
2019-04-30T18:55:59.059Z,18.40
2019-04-30T18:58:37.570Z,18.87
2019-04-30T19:00:59.259Z,18.90
2019-04-30T19:03:29.275Z,17.90
2019-04-30T19:06:01.758Z,17.80
2019-04-30T19:08:35.731Z,18.93
2019-04-30T19:11:24.859Z,18.80
2019-04-30T19:14:17.124Z,18.43
2019-04-30T19:17:03.426Z,18.33
2019-04-30T19:19:50.934Z,19.50
2019-04-30T19:22:19.394Z,19.90
2019-04-30T19:24:56.234Z,19.97
2019-04-30T19:27:18.673Z,20.80
2019-04-30T19:29:49.078Z,20.57
2019-04-30T19:32:17.850Z,20.03
2019-04-30T19:34:46.358Z,20.63
2019-04-30T19:37:14.875Z,23.45
2019-04-30T19:39:43.258Z,20.43
2019-04-30T19:42:11.755Z,21.97
2019-04-30T19:44:40.128Z,20.73
2019-04-30T19:47:09.321Z,20.67
2019-04-30T19:49:38.943Z,21.90
2019-04-30T19:52:09.569Z,20.77
2019-04-30T19:54:39.280Z,25.00
2019-04-30T19:57:10.303Z,24.97
2019-04-30T19:59:38.809Z,22.47
2019-04-30T20:02:07.296Z,20.53
2019-04-30T20:04:37.457Z,20.53
2019-04-30T20:07:10.623Z,21.30
2019-04-30T20:09:39.131Z,20.73
2019-04-30T20:12:07.599Z,21.30
2019-04-30T20:14:36.102Z,20.43
2019-04-30T20:17:04.605Z,20.63
2019-04-30T20:19:33.098Z,21.23
2019-04-30T20:22:01.647Z,21.97
2019-04-30T20:24:30.119Z,21.63
2019-04-30T20:27:07.132Z,21.57
2019-04-30T20:29:29.009Z,19.90
2019-04-30T20:31:58.981Z,21.73
2019-04-30T20:34:29.222Z,22.10
2019-04-30T20:36:58.353Z,21.47
2019-04-30T20:39:36.758Z,20.60
2019-04-30T20:42:05.275Z,22.33
2019-04-30T20:44:33.758Z,23.03
2019-04-30T20:47:02.356Z,22.50
2019-04-30T20:49:30.854Z,22.03
2019-04-30T20:51:59.360Z,21.70
2019-04-30T20:54:29.080Z,22.47
2019-04-30T20:56:59.032Z,21.93
2019-04-30T20:59:28.992Z,23.07
2019-04-30T21:01:57.610Z,22.23
2019-04-30T21:04:26.119Z,22.03
2019-04-30T21:06:54.564Z,23.57
2019-04-30T21:09:22.950Z,22.00
2019-04-30T21:11:51.402Z,22.93
2019-04-30T21:14:19.772Z,22.73
2019-04-30T21:16:48.740Z,23.30
2019-04-30T21:19:17.247Z,22.70
2019-04-30T21:21:45.674Z,23.37
2019-04-30T21:24:14.147Z,21.00
2019-04-30T21:26:42.591Z,23.17
2019-04-30T21:29:15.697Z,23.33
2019-04-30T21:32:09.158Z,22.63
2019-04-30T21:34:44.762Z,21.23
2019-04-30T21:37:13.212Z,24.37
2019-04-30T21:39:41.651Z,23.17
2019-04-30T21:42:10.111Z,23.23
2019-04-30T21:44:38.515Z,23.43
2019-04-30T21:47:06.959Z,24.37
2019-04-30T21:49:35.329Z,24.53
2019-04-30T21:52:03.986Z,24.53
2019-04-30T21:54:32.339Z,25.13
2019-04-30T21:57:00.775Z,24.60
2019-04-30T21:59:30.408Z,25.70
2019-04-30T22:01:59.058Z,26.27
2019-04-30T22:04:27.593Z,25.93
2019-04-30T22:06:55.974Z,26.30
2019-04-30T22:09:24.478Z,25.63
2019-04-30T22:11:52.900Z,25.73
2019-04-30T22:14:21.343Z,25.37
2019-04-30T22:16:49.787Z,25.70
2019-04-30T22:19:18.231Z,26.60
2019-04-30T22:21:46.678Z,26.63
2019-04-30T22:24:15.071Z,26.37
2019-04-30T22:26:43.530Z,26.40
2019-04-30T22:29:12.011Z,26.03
2019-04-30T22:31:40.461Z,25.43
2019-04-30T22:34:08.984Z,26.30
2019-04-30T22:36:48.653Z,25.93
2019-04-30T22:39:42.646Z,27.23
2019-04-30T22:42:30.901Z,27.63
2019-04-30T22:44:59.710Z,27.50
2019-04-30T22:47:28.175Z,26.60
2019-04-30T22:49:56.571Z,27.63
2019-04-30T22:52:25.051Z,27.37
2019-04-30T22:54:53.507Z,28.30
2019-04-30T22:57:21.955Z,28.30
2019-04-30T22:59:50.510Z,27.70
2019-04-30T23:02:26.779Z,27.60
2019-04-30T23:04:55.210Z,28.70
2019-04-30T23:07:23.674Z,28.03
2019-04-30T23:09:52.119Z,28.43
2019-04-30T23:12:20.546Z,28.93
2019-04-30T23:14:48.991Z,28.57
2019-04-30T23:17:17.522Z,28.57
2019-04-30T23:19:49.528Z,28.80
2019-04-30T23:22:15.975Z,29.33
2019-04-30T23:24:44.418Z,29.57
2019-04-30T23:27:12.858Z,25.43
2019-04-30T23:29:41.238Z,30.80
2019-04-30T23:32:09.830Z,29.63
2019-04-30T23:34:38.242Z,30.43
2019-04-30T23:37:06.602Z,30.07
2019-04-30T23:39:35.107Z,29.67
2019-04-30T23:42:03.570Z,30.03
2019-04-30T23:44:32.015Z,29.80
2019-04-30T23:47:00.470Z,27.97
2019-04-30T23:49:28.833Z,29.43
2019-04-30T23:51:57.203Z,30.17
2019-04-30T23:54:25.653Z,29.47
2019-04-30T23:56:54.126Z,31.77
2019-04-30T23:59:22.483Z,29.97
